sensor_id;sensor_type;location;lat;lon;timestamp;pressure;altitude;pressure_sealevel;temperature
69435;BMP180;56625;54.322;18.582;2023-08-20T00:01:27;101190.60;;;20.78
69435;BMP180;56625;54.322;18.582;2023-08-20T00:03:56;101188.00;;;20.80
69435;BMP180;56625;54.322;18.582;2023-08-20T00:06:25;101187.60;;;20.80
69435;BMP180;56625;54.322;18.582;2023-08-20T00:08:51;101187.00;;;20.80
69435;BMP180;56625;54.322;18.582;2023-08-20T00:11:18;101183.60;;;20.76
69435;BMP180;56625;54.322;18.582;2023-08-20T00:13:45;101185.00;;;20.70
69435;BMP180;56625;54.322;18.582;2023-08-20T00:16:12;101182.60;;;20.60
69435;BMP180;56625;54.322;18.582;2023-08-20T00:18:40;101181.40;;;20.60
69435;BMP180;56625;54.322;18.582;2023-08-20T00:21:08;101180.80;;;20.60
69435;BMP180;56625;54.322;18.582;2023-08-20T00:23:35;101177.40;;;20.50
69435;BMP180;56625;54.322;18.582;2023-08-20T00:26:03;101182.00;;;20.48
69435;BMP180;56625;54.322;18.582;2023-08-20T00:28:30;101181.00;;;20.44
69435;BMP180;56625;54.322;18.582;2023-08-20T00:30:56;101182.80;;;20.50
69435;BMP180;56625;54.322;18.582;2023-08-20T00:33:23;101182.60;;;20.50
69435;BMP180;56625;54.322;18.582;2023-08-20T00:35:50;101179.20;;;20.50
69435;BMP180;56625;54.322;18.582;2023-08-20T00:38:17;101170.00;;;20.50
69435;BMP180;56625;54.322;18.582;2023-08-20T00:40:43;101171.40;;;20.50
69435;BMP180;56625;54.322;18.582;2023-08-20T00:43:10;101172.00;;;20.50
69435;BMP180;56625;54.322;18.582;2023-08-20T00:45:38;101177.00;;;20.50
69435;BMP180;56625;54.322;18.582;2023-08-20T00:48:07;101178.00;;;20.48
69435;BMP180;56625;54.322;18.582;2023-08-20T00:50:33;101181.60;;;20.40
69435;BMP180;56625;54.322;18.582;2023-08-20T00:53:01;101178.20;;;20.38
69435;BMP180;56625;54.322;18.582;2023-08-20T00:55:29;101179.00;;;20.30
69435;BMP180;56625;54.322;18.582;2023-08-20T00:57:56;101185.80;;;20.30
69435;BMP180;56625;54.322;18.582;2023-08-20T01:00:24;101186.60;;;20.40
69435;BMP180;56625;54.322;18.582;2023-08-20T01:02:50;101181.80;;;20.40
69435;BMP180;56625;54.322;18.582;2023-08-20T01:05:19;101180.40;;;20.36
69435;BMP180;56625;54.322;18.582;2023-08-20T01:08:27;101180.00;;;20.30
69435;BMP180;56625;54.322;18.582;2023-08-20T01:11:03;101178.40;;;20.30
69435;BMP180;56625;54.322;18.582;2023-08-20T01:13:30;101175.60;;;20.28
69435;BMP180;56625;54.322;18.582;2023-08-20T01:15:56;101177.20;;;20.20
69435;BMP180;56625;54.322;18.582;2023-08-20T01:18:24;101178.60;;;20.20
69435;BMP180;56625;54.322;18.582;2023-08-20T01:20:58;101181.60;;;20.20
69435;BMP180;56625;54.322;18.582;2023-08-20T01:24:01;101179.00;;;20.20
69435;BMP180;56625;54.322;18.582;2023-08-20T01:27:19;101187.60;;;20.20
69435;BMP180;56625;54.322;18.582;2023-08-20T01:29:48;101193.00;;;20.12
69435;BMP180;56625;54.322;18.582;2023-08-20T01:32:16;101191.20;;;20.10
69435;BMP180;56625;54.322;18.582;2023-08-20T01:34:43;101187.80;;;20.06
69435;BMP180;56625;54.322;18.582;2023-08-20T01:37:09;101185.40;;;20.00
69435;BMP180;56625;54.322;18.582;2023-08-20T01:39:36;101185.80;;;20.00
69435;BMP180;56625;54.322;18.582;2023-08-20T01:42:03;101189.00;;;19.90
69435;BMP180;56625;54.322;18.582;2023-08-20T01:44:30;101190.00;;;19.90
69435;BMP180;56625;54.322;18.582;2023-08-20T01:46:57;101192.20;;;19.90
69435;BMP180;56625;54.322;18.582;2023-08-20T01:49:24;101187.40;;;19.90
69435;BMP180;56625;54.322;18.582;2023-08-20T01:51:51;101191.60;;;19.90
69435;BMP180;56625;54.322;18.582;2023-08-20T01:54:17;101192.80;;;19.90
69435;BMP180;56625;54.322;18.582;2023-08-20T01:56:44;101194.40;;;19.88
69435;BMP180;56625;54.322;18.582;2023-08-20T01:59:11;101193.40;;;19.84
69435;BMP180;56625;54.322;18.582;2023-08-20T02:01:37;101193.60;;;19.86
69435;BMP180;56625;54.322;18.582;2023-08-20T02:04:04;101195.40;;;19.90
69435;BMP180;56625;54.322;18.582;2023-08-20T02:06:31;101195.00;;;19.90
69435;BMP180;56625;54.322;18.582;2023-08-20T02:08:57;101191.40;;;19.90
69435;BMP180;56625;54.322;18.582;2023-08-20T02:11:24;101187.60;;;19.90
69435;BMP180;56625;54.322;18.582;2023-08-20T02:13:51;101190.20;;;19.88
69435;BMP180;56625;54.322;18.582;2023-08-20T02:16:18;101186.80;;;19.80
69435;BMP180;56625;54.322;18.582;2023-08-20T02:18:45;101193.00;;;19.80
69435;BMP180;56625;54.322;18.582;2023-08-20T02:21:12;101193.40;;;19.80
69435;BMP180;56625;54.322;18.582;2023-08-20T02:23:38;101199.00;;;19.70
69435;BMP180;56625;54.322;18.582;2023-08-20T02:26:05;101196.80;;;19.70
69435;BMP180;56625;54.322;18.582;2023-08-20T02:28:31;101194.60;;;19.70
69435;BMP180;56625;54.322;18.582;2023-08-20T02:30:58;101191.00;;;19.70
69435;BMP180;56625;54.322;18.582;2023-08-20T02:33:26;101188.40;;;19.70
69435;BMP180;56625;54.322;18.582;2023-08-20T02:35:53;101186.60;;;19.70
69435;BMP180;56625;54.322;18.582;2023-08-20T02:38:19;101188.60;;;19.70
69435;BMP180;56625;54.322;18.582;2023-08-20T02:40:47;101186.60;;;19.64
69435;BMP180;56625;54.322;18.582;2023-08-20T02:43:14;101177.60;;;19.60
69435;BMP180;56625;54.322;18.582;2023-08-20T02:45:42;101180.00;;;19.60
69435;BMP180;56625;54.322;18.582;2023-08-20T02:48:10;101178.20;;;19.60
69435;BMP180;56625;54.322;18.582;2023-08-20T02:50:38;101176.40;;;19.56
69435;BMP180;56625;54.322;18.582;2023-08-20T02:53:05;101176.60;;;19.60
69435;BMP180;56625;54.322;18.582;2023-08-20T02:55:33;101173.40;;;19.54
69435;BMP180;56625;54.322;18.582;2023-08-20T02:58:00;101167.20;;;19.50
69435;BMP180;56625;54.322;18.582;2023-08-20T03:00:26;101168.80;;;19.50
69435;BMP180;56625;54.322;18.582;2023-08-20T03:02:54;101171.20;;;19.50
69435;BMP180;56625;54.322;18.582;2023-08-20T03:05:21;101171.40;;;19.48
69435;BMP180;56625;54.322;18.582;2023-08-20T03:07:48;101167.40;;;19.50
69435;BMP180;56625;54.322;18.582;2023-08-20T03:10:15;101164.60;;;19.40
69435;BMP180;56625;54.322;18.582;2023-08-20T03:12:42;101162.40;;;19.46
69435;BMP180;56625;54.322;18.582;2023-08-20T03:15:09;101165.80;;;19.50
69435;BMP180;56625;54.322;18.582;2023-08-20T03:17:35;101169.80;;;19.50
69435;BMP180;56625;54.322;18.582;2023-08-20T03:20:02;101166.80;;;19.46
69435;BMP180;56625;54.322;18.582;2023-08-20T03:22:33;101162.40;;;19.42
69435;BMP180;56625;54.322;18.582;2023-08-20T03:24:59;101161.80;;;19.40
69435;BMP180;56625;54.322;18.582;2023-08-20T03:27:26;101161.00;;;19.40
69435;BMP180;56625;54.322;18.582;2023-08-20T03:29:53;101165.80;;;19.40
69435;BMP180;56625;54.322;18.582;2023-08-20T03:32:19;101168.40;;;19.40
69435;BMP180;56625;54.322;18.582;2023-08-20T03:34:46;101175.40;;;19.40
69435;BMP180;56625;54.322;18.582;2023-08-20T03:37:13;101176.60;;;19.40
69435;BMP180;56625;54.322;18.582;2023-08-20T03:39:39;101180.20;;;19.40
69435;BMP180;56625;54.322;18.582;2023-08-20T03:42:06;101179.80;;;19.40
69435;BMP180;56625;54.322;18.582;2023-08-20T03:44:33;101184.40;;;19.40
69435;BMP180;56625;54.322;18.582;2023-08-20T03:46:59;101185.20;;;19.40
69435;BMP180;56625;54.322;18.582;2023-08-20T03:49:26;101178.40;;;19.40
69435;BMP180;56625;54.322;18.582;2023-08-20T03:51:53;101176.20;;;19.40
69435;BMP180;56625;54.322;18.582;2023-08-20T03:54:19;101175.40;;;19.48
69435;BMP180;56625;54.322;18.582;2023-08-20T03:56:46;101174.00;;;19.50
69435;BMP180;56625;54.322;18.582;2023-08-20T03:59:13;101180.20;;;19.50
69435;BMP180;56625;54.322;18.582;2023-08-20T04:01:39;101186.00;;;19.50
69435;BMP180;56625;54.322;18.582;2023-08-20T04:04:06;101184.40;;;19.50
69435;BMP180;56625;54.322;18.582;2023-08-20T04:06:33;101185.80;;;19.50
69435;BMP180;56625;54.322;18.582;2023-08-20T04:09:00;101180.40;;;19.56
69435;BMP180;56625;54.322;18.582;2023-08-20T04:11:26;101183.60;;;19.60
69435;BMP180;56625;54.322;18.582;2023-08-20T04:13:53;101182.80;;;19.62
69435;BMP180;56625;54.322;18.582;2023-08-20T04:16:19;101178.00;;;19.80
69435;BMP180;56625;54.322;18.582;2023-08-20T04:18:46;101176.80;;;19.92
69435;BMP180;56625;54.322;18.582;2023-08-20T04:21:13;101174.40;;;20.10
69435;BMP180;56625;54.322;18.582;2023-08-20T04:23:40;101171.80;;;20.24
69435;BMP180;56625;54.322;18.582;2023-08-20T04:26:08;101172.20;;;20.36
69435;BMP180;56625;54.322;18.582;2023-08-20T04:28:34;101171.00;;;20.50
69435;BMP180;56625;54.322;18.582;2023-08-20T04:31:01;101168.20;;;20.60
69435;BMP180;56625;54.322;18.582;2023-08-20T04:33:31;101167.20;;;20.70
69435;BMP180;56625;54.322;18.582;2023-08-20T04:35:58;101167.80;;;20.90
69435;BMP180;56625;54.322;18.582;2023-08-20T04:38:24;101171.80;;;21.00
69435;BMP180;56625;54.322;18.582;2023-08-20T04:40:51;101167.80;;;21.14
69435;BMP180;56625;54.322;18.582;2023-08-20T04:43:18;101166.60;;;21.20
69435;BMP180;56625;54.322;18.582;2023-08-20T04:45:45;101162.40;;;21.40
69435;BMP180;56625;54.322;18.582;2023-08-20T04:48:11;101164.40;;;21.52
69435;BMP180;56625;54.322;18.582;2023-08-20T04:50:38;101167.60;;;21.70
69435;BMP180;56625;54.322;18.582;2023-08-20T04:53:05;101164.40;;;21.78
69435;BMP180;56625;54.322;18.582;2023-08-20T04:55:32;101171.00;;;21.90
69435;BMP180;56625;54.322;18.582;2023-08-20T04:57:58;101171.60;;;22.10
69435;BMP180;56625;54.322;18.582;2023-08-20T05:00:26;101173.60;;;22.22
69435;BMP180;56625;54.322;18.582;2023-08-20T05:02:53;101173.60;;;22.40
69435;BMP180;56625;54.322;18.582;2023-08-20T05:05:22;101174.20;;;22.60
69435;BMP180;56625;54.322;18.582;2023-08-20T05:07:49;101172.80;;;22.76
69435;BMP180;56625;54.322;18.582;2023-08-20T05:10:16;101169.40;;;22.90
69435;BMP180;56625;54.322;18.582;2023-08-20T05:12:42;101170.00;;;23.00
69435;BMP180;56625;54.322;18.582;2023-08-20T05:15:09;101172.20;;;23.10
69435;BMP180;56625;54.322;18.582;2023-08-20T05:17:36;101173.40;;;23.30
69435;BMP180;56625;54.322;18.582;2023-08-20T05:20:03;101177.20;;;23.54
69435;BMP180;56625;54.322;18.582;2023-08-20T05:22:30;101180.40;;;23.80
69435;BMP180;56625;54.322;18.582;2023-08-20T05:24:56;101180.00;;;23.96
69435;BMP180;56625;54.322;18.582;2023-08-20T05:27:23;101178.60;;;24.20
69435;BMP180;56625;54.322;18.582;2023-08-20T05:29:50;101185.60;;;24.50
69435;BMP180;56625;54.322;18.582;2023-08-20T05:32:17;101188.60;;;24.70
69435;BMP180;56625;54.322;18.582;2023-08-20T05:34:43;101188.60;;;25.02
69435;BMP180;56625;54.322;18.582;2023-08-20T05:37:10;101184.20;;;25.46
69435;BMP180;56625;54.322;18.582;2023-08-20T05:39:41;101180.80;;;25.72
69435;BMP180;56625;54.322;18.582;2023-08-20T05:42:08;101183.40;;;25.86
69435;BMP180;56625;54.322;18.582;2023-08-20T05:44:36;101184.40;;;25.90
69435;BMP180;56625;54.322;18.582;2023-08-20T05:47:03;101185.60;;;25.88
69435;BMP180;56625;54.322;18.582;2023-08-20T05:49:32;101185.60;;;26.00
69435;BMP180;56625;54.322;18.582;2023-08-20T05:51:59;101183.80;;;26.10
69435;BMP180;56625;54.322;18.582;2023-08-20T05:54:26;101190.00;;;26.30
69435;BMP180;56625;54.322;18.582;2023-08-20T05:56:53;101188.80;;;26.40
69435;BMP180;56625;54.322;18.582;2023-08-20T05:59:19;101190.60;;;26.30
69435;BMP180;56625;54.322;18.582;2023-08-20T06:01:46;101192.60;;;26.30
69435;BMP180;56625;54.322;18.582;2023-08-20T06:04:12;101193.80;;;26.38
69435;BMP180;56625;54.322;18.582;2023-08-20T06:06:39;101200.60;;;26.30
69435;BMP180;56625;54.322;18.582;2023-08-20T06:09:07;101200.80;;;26.30
69435;BMP180;56625;54.322;18.582;2023-08-20T06:11:36;101205.20;;;26.30
69435;BMP180;56625;54.322;18.582;2023-08-20T06:14:03;101207.40;;;26.30
69435;BMP180;56625;54.322;18.582;2023-08-20T06:16:29;101204.20;;;26.30
69435;BMP180;56625;54.322;18.582;2023-08-20T06:18:58;101204.00;;;26.30
69435;BMP180;56625;54.322;18.582;2023-08-20T06:21:25;101208.40;;;26.40
69435;BMP180;56625;54.322;18.582;2023-08-20T06:23:52;101210.40;;;26.58
69435;BMP180;56625;54.322;18.582;2023-08-20T06:26:19;101210.60;;;26.70
69435;BMP180;56625;54.322;18.582;2023-08-20T06:28:46;101212.80;;;26.70
69435;BMP180;56625;54.322;18.582;2023-08-20T06:31:13;101213.00;;;26.60
69435;BMP180;56625;54.322;18.582;2023-08-20T06:33:39;101214.00;;;26.44
69435;BMP180;56625;54.322;18.582;2023-08-20T06:36:06;101211.20;;;26.30
69435;BMP180;56625;54.322;18.582;2023-08-20T06:38:33;101210.20;;;26.26
69435;BMP180;56625;54.322;18.582;2023-08-20T06:40:59;101212.00;;;26.30
69435;BMP180;56625;54.322;18.582;2023-08-20T06:43:26;101211.40;;;26.30
69435;BMP180;56625;54.322;18.582;2023-08-20T06:45:53;101208.60;;;26.40
69435;BMP180;56625;54.322;18.582;2023-08-20T06:48:19;101207.40;;;26.60
69435;BMP180;56625;54.322;18.582;2023-08-20T06:50:48;101206.80;;;26.80
69435;BMP180;56625;54.322;18.582;2023-08-20T06:53:14;101208.00;;;26.90
69435;BMP180;56625;54.322;18.582;2023-08-20T06:55:41;101208.20;;;26.90
69435;BMP180;56625;54.322;18.582;2023-08-20T06:58:08;101206.00;;;26.90
69435;BMP180;56625;54.322;18.582;2023-08-20T07:00:34;101205.40;;;26.98
69435;BMP180;56625;54.322;18.582;2023-08-20T07:03:01;101206.00;;;27.06
69435;BMP180;56625;54.322;18.582;2023-08-20T07:05:28;101201.40;;;27.20
69435;BMP180;56625;54.322;18.582;2023-08-20T07:07:58;101206.00;;;27.30
69435;BMP180;56625;54.322;18.582;2023-08-20T07:10:24;101212.60;;;27.34
69435;BMP180;56625;54.322;18.582;2023-08-20T07:12:51;101209.80;;;27.40
69435;BMP180;56625;54.322;18.582;2023-08-20T07:15:17;101206.00;;;27.50
69435;BMP180;56625;54.322;18.582;2023-08-20T07:17:44;101203.80;;;27.50
69435;BMP180;56625;54.322;18.582;2023-08-20T07:20:12;101202.40;;;27.60
69435;BMP180;56625;54.322;18.582;2023-08-20T07:22:39;101203.60;;;27.70
69435;BMP180;56625;54.322;18.582;2023-08-20T07:25:06;101200.60;;;27.90
69435;BMP180;56625;54.322;18.582;2023-08-20T07:27:33;101195.60;;;28.08
69435;BMP180;56625;54.322;18.582;2023-08-20T07:30:00;101190.40;;;28.12
69435;BMP180;56625;54.322;18.582;2023-08-20T07:32:27;101193.60;;;28.22
69435;BMP180;56625;54.322;18.582;2023-08-20T07:34:53;101195.80;;;28.40
69435;BMP180;56625;54.322;18.582;2023-08-20T07:37:20;101193.60;;;28.52
69435;BMP180;56625;54.322;18.582;2023-08-20T07:39:48;101195.40;;;28.60
69435;BMP180;56625;54.322;18.582;2023-08-20T07:42:14;101197.20;;;28.72
69435;BMP180;56625;54.322;18.582;2023-08-20T07:44:41;101201.20;;;28.70
69435;BMP180;56625;54.322;18.582;2023-08-20T07:47:07;101198.60;;;28.72
69435;BMP180;56625;54.322;18.582;2023-08-20T07:49:34;101206.00;;;28.80
69435;BMP180;56625;54.322;18.582;2023-08-20T07:52:01;101200.40;;;28.78
69435;BMP180;56625;54.322;18.582;2023-08-20T07:54:27;101205.20;;;28.82
69435;BMP180;56625;54.322;18.582;2023-08-20T07:56:58;101203.80;;;29.04
69435;BMP180;56625;54.322;18.582;2023-08-20T07:59:25;101205.20;;;29.22
69435;BMP180;56625;54.322;18.582;2023-08-20T08:01:51;101204.00;;;29.40
69435;BMP180;56625;54.322;18.582;2023-08-20T08:04:18;101199.40;;;29.50
69435;BMP180;56625;54.322;18.582;2023-08-20T08:06:45;101205.00;;;29.54
69435;BMP180;56625;54.322;18.582;2023-08-20T08:09:27;101208.40;;;29.60
69435;BMP180;56625;54.322;18.582;2023-08-20T08:11:56;101208.60;;;29.70
69435;BMP180;56625;54.322;18.582;2023-08-20T08:14:24;101208.20;;;29.80
69435;BMP180;56625;54.322;18.582;2023-08-20T08:16:51;101209.40;;;29.80
69435;BMP180;56625;54.322;18.582;2023-08-20T08:19:21;101215.40;;;29.90
69435;BMP180;56625;54.322;18.582;2023-08-20T08:21:48;101212.80;;;30.02
69435;BMP180;56625;54.322;18.582;2023-08-20T08:24:15;101210.40;;;30.10
69435;BMP180;56625;54.322;18.582;2023-08-20T08:26:42;101212.40;;;30.12
69435;BMP180;56625;54.322;18.582;2023-08-20T08:29:08;101213.40;;;30.20
69435;BMP180;56625;54.322;18.582;2023-08-20T08:31:36;101201.80;;;30.10
69435;BMP180;56625;54.322;18.582;2023-08-20T08:34:03;101199.40;;;30.00
69435;BMP180;56625;54.322;18.582;2023-08-20T08:36:30;101198.00;;;30.02
69435;BMP180;56625;54.322;18.582;2023-08-20T08:38:56;101195.00;;;30.00
69435;BMP180;56625;54.322;18.582;2023-08-20T08:41:26;101199.60;;;30.10
69435;BMP180;56625;54.322;18.582;2023-08-20T08:43:55;101202.20;;;30.00
69435;BMP180;56625;54.322;18.582;2023-08-20T08:46:25;101200.60;;;30.10
69435;BMP180;56625;54.322;18.582;2023-08-20T08:48:52;101203.00;;;30.20
69435;BMP180;56625;54.322;18.582;2023-08-20T08:51:19;101203.60;;;30.30
69435;BMP180;56625;54.322;18.582;2023-08-20T08:53:46;101203.40;;;30.40
69435;BMP180;56625;54.322;18.582;2023-08-20T08:56:14;101207.00;;;30.50
69435;BMP180;56625;54.322;18.582;2023-08-20T08:58:41;101205.60;;;30.50
69435;BMP180;56625;54.322;18.582;2023-08-20T09:01:07;101213.60;;;30.40
69435;BMP180;56625;54.322;18.582;2023-08-20T09:03:34;101214.00;;;30.40
69435;BMP180;56625;54.322;18.582;2023-08-20T09:06:08;101220.80;;;30.60
69435;BMP180;56625;54.322;18.582;2023-08-20T09:08:35;101220.40;;;30.70
69435;BMP180;56625;54.322;18.582;2023-08-20T09:11:02;101223.40;;;30.90
69435;BMP180;56625;54.322;18.582;2023-08-20T09:13:38;101220.80;;;31.18
69435;BMP180;56625;54.322;18.582;2023-08-20T09:16:11;101221.80;;;31.54
69435;BMP180;56625;54.322;18.582;2023-08-20T09:18:44;101221.00;;;31.60
69435;BMP180;56625;54.322;18.582;2023-08-20T09:21:13;101225.20;;;31.50
69435;BMP180;56625;54.322;18.582;2023-08-20T09:23:40;101220.60;;;31.30
69435;BMP180;56625;54.322;18.582;2023-08-20T09:26:11;101230.80;;;31.30
69435;BMP180;56625;54.322;18.582;2023-08-20T09:28:42;101232.80;;;31.56
69435;BMP180;56625;54.322;18.582;2023-08-20T09:31:11;101227.00;;;31.80
69435;BMP180;56625;54.322;18.582;2023-08-20T09:34:05;101227.00;;;32.10
69435;BMP180;56625;54.322;18.582;2023-08-20T09:36:34;101224.00;;;32.30
69435;BMP180;56625;54.322;18.582;2023-08-20T09:39:03;101230.60;;;32.20
69435;BMP180;56625;54.322;18.582;2023-08-20T09:41:30;101232.00;;;32.20
69435;BMP180;56625;54.322;18.582;2023-08-20T09:44:00;101234.40;;;32.00
69435;BMP180;56625;54.322;18.582;2023-08-20T09:46:31;101236.80;;;31.90
69435;BMP180;56625;54.322;18.582;2023-08-20T09:49:01;101235.60;;;32.00
69435;BMP180;56625;54.322;18.582;2023-08-20T09:51:33;101235.20;;;32.06
69435;BMP180;56625;54.322;18.582;2023-08-20T09:54:21;101236.40;;;32.00
69435;BMP180;56625;54.322;18.582;2023-08-20T09:56:58;101236.60;;;31.78
69435;BMP180;56625;54.322;18.582;2023-08-20T09:59:28;101241.40;;;31.60
69435;BMP180;56625;54.322;18.582;2023-08-20T10:01:56;101246.60;;;31.54
69435;BMP180;56625;54.322;18.582;2023-08-20T10:04:25;101241.60;;;31.68
69435;BMP180;56625;54.322;18.582;2023-08-20T10:06:53;101243.80;;;31.96
69435;BMP180;56625;54.322;18.582;2023-08-20T10:09:22;101239.80;;;32.10
69435;BMP180;56625;54.322;18.582;2023-08-20T10:11:49;101238.40;;;32.20
69435;BMP180;56625;54.322;18.582;2023-08-20T10:14:16;101238.20;;;32.10
69435;BMP180;56625;54.322;18.582;2023-08-20T10:16:45;101238.20;;;32.00
69435;BMP180;56625;54.322;18.582;2023-08-20T10:19:15;101239.80;;;31.90
69435;BMP180;56625;54.322;18.582;2023-08-20T10:21:44;101236.40;;;32.02
69435;BMP180;56625;54.322;18.582;2023-08-20T10:24:18;101234.20;;;32.10
69435;BMP180;56625;54.322;18.582;2023-08-20T10:26:46;101232.00;;;32.10
69435;BMP180;56625;54.322;18.582;2023-08-20T10:29:38;101234.00;;;32.00
69435;BMP180;56625;54.322;18.582;2023-08-20T10:32:09;101229.80;;;31.90
69435;BMP180;56625;54.322;18.582;2023-08-20T10:34:38;101231.40;;;31.90
69435;BMP180;56625;54.322;18.582;2023-08-20T10:37:13;101229.60;;;31.70
69435;BMP180;56625;54.322;18.582;2023-08-20T10:39:40;101229.20;;;31.46
69435;BMP180;56625;54.322;18.582;2023-08-20T10:45:15;101229.00;;;30.80
69435;BMP180;56625;54.322;18.582;2023-08-20T10:47:43;101236.40;;;30.56
69435;BMP180;56625;54.322;18.582;2023-08-20T10:50:19;101238.00;;;30.20
69435;BMP180;56625;54.322;18.582;2023-08-20T10:52:55;101234.40;;;30.00
69435;BMP180;56625;54.322;18.582;2023-08-20T10:55:23;101234.80;;;29.78
69435;BMP180;56625;54.322;18.582;2023-08-20T10:57:57;101235.80;;;29.60
69435;BMP180;56625;54.322;18.582;2023-08-20T11:00:26;101238.40;;;29.50
69435;BMP180;56625;54.322;18.582;2023-08-20T11:02:55;101248.60;;;29.22
69435;BMP180;56625;54.322;18.582;2023-08-20T11:05:23;101257.20;;;29.00
69435;BMP180;56625;54.322;18.582;2023-08-20T11:07:50;101259.00;;;28.72
69435;BMP180;56625;54.322;18.582;2023-08-20T11:10:17;101255.20;;;28.46
69435;BMP180;56625;54.322;18.582;2023-08-20T11:12:46;101254.80;;;28.28
69435;BMP180;56625;54.322;18.582;2023-08-20T11:15:13;101256.20;;;28.00
69435;BMP180;56625;54.322;18.582;2023-08-20T11:17:45;101265.20;;;27.90
69435;BMP180;56625;54.322;18.582;2023-08-20T11:20:17;101269.80;;;27.80
69435;BMP180;56625;54.322;18.582;2023-08-20T11:22:44;101272.20;;;27.70
69435;BMP180;56625;54.322;18.582;2023-08-20T11:25:12;101277.00;;;27.60
69435;BMP180;56625;54.322;18.582;2023-08-20T11:27:43;101274.60;;;27.40
69435;BMP180;56625;54.322;18.582;2023-08-20T11:30:11;101271.60;;;27.16
69435;BMP180;56625;54.322;18.582;2023-08-20T11:32:41;101276.00;;;26.90
69435;BMP180;56625;54.322;18.582;2023-08-20T11:35:09;101268.20;;;26.70
69435;BMP180;56625;54.322;18.582;2023-08-20T11:37:36;101268.80;;;26.50
69435;BMP180;56625;54.322;18.582;2023-08-20T11:40:07;101278.00;;;26.40
69435;BMP180;56625;54.322;18.582;2023-08-20T11:42:34;101295.80;;;26.40
69435;BMP180;56625;54.322;18.582;2023-08-20T11:45:01;101310.80;;;26.18
69435;BMP180;56625;54.322;18.582;2023-08-20T11:47:28;101320.20;;;25.50
69435;BMP180;56625;54.322;18.582;2023-08-20T11:50:05;101322.80;;;24.88
69435;BMP180;56625;54.322;18.582;2023-08-20T11:52:36;101324.00;;;24.40
69435;BMP180;56625;54.322;18.582;2023-08-20T11:55:06;101329.20;;;24.20
69435;BMP180;56625;54.322;18.582;2023-08-20T11:57:33;101331.40;;;24.10
69435;BMP180;56625;54.322;18.582;2023-08-20T12:00:05;101318.60;;;24.00
69435;BMP180;56625;54.322;18.582;2023-08-20T12:02:35;101333.00;;;23.90
69435;BMP180;56625;54.322;18.582;2023-08-20T12:05:07;101342.20;;;23.66
69435;BMP180;56625;54.322;18.582;2023-08-20T12:07:37;101341.40;;;23.50
69435;BMP180;56625;54.322;18.582;2023-08-20T12:10:26;101324.40;;;23.30
69435;BMP180;56625;54.322;18.582;2023-08-20T12:13:09;101308.20;;;23.30
69435;BMP180;56625;54.322;18.582;2023-08-20T12:17:10;101297.40;;;23.56
69435;BMP180;56625;54.322;18.582;2023-08-20T12:19:56;101296.00;;;24.12
69435;BMP180;56625;54.322;18.582;2023-08-20T12:22:37;101288.20;;;24.54
69435;BMP180;56625;54.322;18.582;2023-08-20T12:25:05;101284.00;;;24.98
69435;BMP180;56625;54.322;18.582;2023-08-20T12:27:34;101283.60;;;25.20
69435;BMP180;56625;54.322;18.582;2023-08-20T12:30:01;101276.80;;;25.40
69435;BMP180;56625;54.322;18.582;2023-08-20T12:32:28;101273.40;;;25.50
69435;BMP180;56625;54.322;18.582;2023-08-20T12:34:55;101268.60;;;25.76
69435;BMP180;56625;54.322;18.582;2023-08-20T12:37:22;101268.20;;;26.04
69435;BMP180;56625;54.322;18.582;2023-08-20T12:39:49;101258.60;;;26.32
69435;BMP180;56625;54.322;18.582;2023-08-20T12:42:28;101249.60;;;26.68
69435;BMP180;56625;54.322;18.582;2023-08-20T12:45:03;101244.60;;;27.10
69435;BMP180;56625;54.322;18.582;2023-08-20T12:47:30;101233.80;;;27.32
69435;BMP180;56625;54.322;18.582;2023-08-20T12:49:57;101235.00;;;27.58
69435;BMP180;56625;54.322;18.582;2023-08-20T12:52:23;101234.60;;;27.60
69435;BMP180;56625;54.322;18.582;2023-08-20T12:54:50;101241.80;;;27.70
69435;BMP180;56625;54.322;18.582;2023-08-20T12:57:16;101237.00;;;27.80
69435;BMP180;56625;54.322;18.582;2023-08-20T12:59:43;101228.80;;;27.90
69435;BMP180;56625;54.322;18.582;2023-08-20T13:02:11;101227.80;;;27.80
69435;BMP180;56625;54.322;18.582;2023-08-20T13:04:37;101236.60;;;27.82
69435;BMP180;56625;54.322;18.582;2023-08-20T13:07:05;101244.20;;;27.90
69435;BMP180;56625;54.322;18.582;2023-08-20T13:09:32;101239.40;;;27.90
69435;BMP180;56625;54.322;18.582;2023-08-20T13:12:01;101237.20;;;27.90
69435;BMP180;56625;54.322;18.582;2023-08-20T13:14:30;101239.20;;;27.90
69435;BMP180;56625;54.322;18.582;2023-08-20T13:16:57;101241.00;;;27.90
69435;BMP180;56625;54.322;18.582;2023-08-20T13:19:23;101244.20;;;28.00
69435;BMP180;56625;54.322;18.582;2023-08-20T13:21:50;101242.80;;;28.20
69435;BMP180;56625;54.322;18.582;2023-08-20T13:24:17;101237.20;;;28.30
69435;BMP180;56625;54.322;18.582;2023-08-20T13:26:43;101231.80;;;28.40
69435;BMP180;56625;54.322;18.582;2023-08-20T13:29:11;101230.20;;;28.50
69435;BMP180;56625;54.322;18.582;2023-08-20T13:31:37;101228.40;;;28.40
69435;BMP180;56625;54.322;18.582;2023-08-20T13:34:04;101236.00;;;28.30
69435;BMP180;56625;54.322;18.582;2023-08-20T13:36:31;101236.40;;;28.30
69435;BMP180;56625;54.322;18.582;2023-08-20T13:38:57;101235.80;;;28.34
69435;BMP180;56625;54.322;18.582;2023-08-20T13:41:24;101235.00;;;28.30
69435;BMP180;56625;54.322;18.582;2023-08-20T13:43:51;101236.20;;;28.40
69435;BMP180;56625;54.322;18.582;2023-08-20T13:46:18;101235.60;;;28.50
69435;BMP180;56625;54.322;18.582;2023-08-20T13:48:58;101232.60;;;28.60
69435;BMP180;56625;54.322;18.582;2023-08-20T13:51:30;101237.60;;;28.50
69435;BMP180;56625;54.322;18.582;2023-08-20T13:53:57;101236.00;;;28.30
69435;BMP180;56625;54.322;18.582;2023-08-20T13:56:24;101238.60;;;28.20